Thursday, November 27, 2014
01:44 UTC
  |  Log In   |  Register Free
Airport Search:

Chanute Martin Johnson Airport
(KCNU)

Chanute Martin Johnson Airport Diagram
No Airport Diagram Available

FAA data valid effective November 13, 2014 - January 08, 2015 (unless otherwise noted).

 
 
 
 
 
 
 
 
 
 
 
 
 
 

Current Aviation Weather for Chanute Martin Johnson Airport (KCNU)

The most recent METAR observation for KCNU was updated at: 0116
METAR Summary (Translated METAR)
KCNU
270052Z AUTO 31010KT 10SM OVC034 02/M04 A3031 RMK AO2 SLP269 T00171039
KPPF
270052Z AUTO 32009KT 10SM CLR 02/M03 A3032 RMK AO2 SLP272 T00221033
(20.3 nm SW from KCNU)
KIDP
270055Z AUTO 33015KT 10SM CLR 02/M03 A3031 RMK AO2
(33.7 nm SW from KCNU)
TAF Summary (Translated TAF)
KCNU
261740Z 2618/2718 32022G30KT P6SM BKN050 FM262300 34010KT P6SM SCT050
  Airport Weather Conditions for KCNU

 Current Weather at CNU
35° F
Overcast
Northwest winds at 11.5 mph
CNU NOAA Radar

Pressure: 30.31 in
Humidity: 67%
Wind: Northwest at 11.5 MPH (10 KT)
Dew Point: 25.0°F
Visibility: 10.00 mi


Airport Weather Forecast for KCNU

Translated METAR and TAF for KCNU
Translated METAR for KCNU (0139 UTC 27 November 2014)
found at http://aviationweather.gov/adds/metars/
 
METAR text: KCNU 270052Z AUTO 31010KT 10SM OVC034 02/M04 A3031 RMK AO2 SLP269 T00171039
Conditions at: KCNU (CHANUTE , KS, US) observed 0052 UTC 27 November 2014
Temperature: 1.7°C (35°F)
Dewpoint: -3.9°C (25°F) [RH = 66%]
Pressure (altimeter): 30.31 inches Hg (1026.5 mb)
[Sea-level pressure: 1026.9 mb]
Winds: from the NW (310 degrees) at 12 MPH (10 knots; 5.2 m/s)
Visibility: 10 or more miles (16+ km)
Ceiling: 3400 feet AGL
Clouds: overcast cloud deck at 3400 feet AGL
Weather: automated observation with no human augmentation;
there may or may not be significant weather present at this time
Translated TAF for KCNU
Forecast for: KCNU (CHANUTE , KS, US)
TAF Text: KCNU 262320Z 2700/2724 34013KT P6SM FEW050
Forecast period: 0000 to 0700 UTC 27 November 2014
Forecast type: FROM: standard forecast or significant change
Winds: from the NNW (340 degrees) at 15 MPH (13 knots; 6.8 m/s)
Visibility: 6 or more miles (10+ km)
Clouds: few clouds at 5000 feet AGL
Weather: no significant weather forecast for this period
TAF Text: FM270700 01009KT P6SM FEW080
Forecast period: 0700 to 1200 UTC 27 November 2014
Forecast type: FROM: standard forecast or significant change
Winds: from the N (10 degrees) at 10 MPH (9 knots; 4.7 m/s)
Visibility: 6 or more miles (10+ km)
Clouds: few clouds at 8000 feet AGL
Weather: no significant weather forecast for this period
TAF Text: FM271200 VRB04KT P6SM SKC
Forecast period: 1200 to 1900 UTC 27 November 2014
Forecast type: FROM: standard forecast or significant change
Winds: variable direction winds at 5 MPH (4 knots; 2.1 m/s)
Visibility: 6 or more miles (10+ km)
Clouds: clear skies
Weather: no significant weather forecast for this period
TAF Text: FM271900 17009KT P6SM SKC
Forecast period: 1900 UTC 27 November 2014 to 0000 UTC 28 November 2014
Forecast type: FROM: standard forecast or significant change
Winds: from the S (170 degrees) at 10 MPH (9 knots; 4.7 m/s)
Visibility: 6 or more miles (10+ km)
Clouds: clear skies
Weather: no significant weather forecast for this period

Find All Airport Services Find A Hotel Find A Rental Car Find A Golf Course Find A Restaurant $100 Hamburger



FBO's on the Field
FBO Company Facility Photos Services Transportation Aviation Fuel Prices: Prices include tax
Catering Weather Repair Courtesy Rental Type 100LL JetA JetA+ MOGAS 8087
 
City of Chanute

This FBO has not yet been rated
FS:Phillips 66
Last Updated: Nov-14
Login to update fuel prices
SS:
Contact City of ChanuteMore FBO Information
 
Add another FBO Facility Photos Catering Weather Repair Courtesy Rental Type 100LL JetA JetA+ MOGAS 8087
Services Transportation Aviation Fuel Prices: Prices include tax


model-print
model-print
model-print
model-print